WSLO2: Wister Lake

Data processed at Sun Dec 16 2018 23:32


All information presented herein is the property of the government of the United States of America and may be revised or deleted at any time without prior notice.
Dissemination of this information without the expressed written consent of the Public Affairs Office, Tulsa District U.S. Army Corps of Engineers is strictly prohibited.
These data are gathered electronically and, as presented, have not undergone any form of quality control. These data are not guaranteed to be valid or correct.
Go to home page.
Go to station list.
Go to home page.

Upstream stations:

Downstream station:
Previous Day
Next Day
Current Day
    
SHEF ID:       WSLO2     Wister Lake
STATION TYPE:  RESERVOIR
Normal Pool:  Bottom =   450.00, Top =   478.00

               PRECIP ELEVATION   STORAGE   TW-ELEV    INFLOW   RELEASE  AIR-TEMP  WIND-DIRWIND-SPEED REL-HUMID SOLAR-RAD   VOLTAGE  BAT-LOAD
                   in        ft     ac-ft        ft       cfs       cfs         F       deg       mph         %      W/m2      volt      volt
              Ccp-Rev   Ccp-Rev   Ccp-Rev   Ccp-Rev  Regi-Rev  Regi-Rev   Ccp-Rev   Ccp-Rev   Ccp-Rev   Ccp-Rev   Ccp-Rev   Ccp-Rev   Ccp-Rev
(US/Central)
12/16 00:00      0.00    484.60    105700      1.08      8100       721     39.78    199.00      0.44     97.50      0.00     13.91     13.00
12/16 01:00      0.00    484.66    106310      1.08      8101       723     37.71    143.50      0.44     99.10      0.00     13.91     13.00
12/16 02:00      0.00    484.72    106919      1.08      7610       722     35.83    257.40      0.24     98.97      0.00     13.91     13.00
12/16 03:00      0.00    484.78    107529      1.08      7364       723     36.93    180.20      0.37     99.82      0.00     13.91     13.00
12/16 04:00      0.00    484.82    107936      1.08      7365       724     34.29    216.90      0.45     99.10      0.00     13.90     13.00
12/16 05:00      0.00    484.87    108444      1.08      6873       724     34.18     73.70      0.26     99.76      0.00     13.92     13.00
12/16 06:00      0.00    484.93    109054      1.08      6655       725     36.50    122.90      0.38     99.89      0.00     13.91     13.00
12/16 07:00      0.00    484.97    109460      1.08      7226       725     35.62    254.90      0.38     99.28      1.00     13.92     13.00
12/16 08:00      0.00    485.02    109980      1.08      6775       726     38.03    246.60      0.34     97.99      7.00     13.91     13.00
12/16 09:00      0.00    485.08    110622      1.08      6336       726     39.90    216.10      0.28     96.72     64.00     13.91     13.00
12/16 10:00      0.00    485.11    110944      1.08      6649       727     41.76     90.80      0.21     90.60    110.00     13.92     13.00
12/16 11:00      0.00    485.15    111372      1.08      6171       727     44.62    293.30      0.33     85.05    192.00     13.91     13.00
12/16 12:00      0.00    485.20    111908      1.08      6171       727     50.56     35.60      0.39     69.84    505.00     13.92     13.00
12/16 13:00      0.00    485.23    112229      1.07      6171       727     52.65     56.20      0.76     63.68    426.00     13.92     13.00
12/16 14:00      0.00    485.29    112872      1.05      5912       728     58.24     38.50      0.99     57.45    424.00     13.93     13.07
12/16 15:00      0.00    485.32    113193      1.05      5653       728     60.55    351.90      0.22     55.68    302.00     13.92     13.00
12/16 16:00      0.00    485.35    113514      1.05      6172       728     61.75     79.20      0.37     58.73    262.00     13.92     13.00
12/16 17:00      0.00    485.39    113943      1.06      5395       728     57.81    115.00      0.32     69.67     47.00     13.92     13.00
12/16 18:00      0.00    485.44    114479      1.05      5394       728     52.09    284.90      0.21     85.10      1.00     13.91     13.00
12/16 19:00      0.00    485.47    114800      1.06      5654       729     48.13     73.30      0.21     94.51      0.00     13.91     13.00
12/16 20:00      0.00    485.50    115121      1.06      5395       729     45.72    121.20      0.09     98.78      0.00     13.90     13.00
12/16 21:00      0.00    485.54    115550      1.06      5136       729     43.09    154.80      0.33     99.22      0.00     13.91     13.00
12/16 22:00      0.00    485.57    115871      1.06      4876       729     42.08    143.60      0.43     99.82      0.00     13.91     12.95
12/16 23:00      0.00    485.61    116300      1.06      -901      -901     41.11    295.20      0.01     99.77      1.00     13.91     13.00